Terminal Aerodrome Forecast
Issued by NWS Paducah, KY

Home | Current Version | Previous Version | Text Only | Print | Product List | Glossary On
Versions: 1 2 3 4 5 6 7 8 9 10 11 12 13
369
FTUS43 KPAH 232338
TAFPAH
TAF
KPAH 232338Z 2400/2424 VRB02KT P6SM SKC
     FM240700 00000KT 3SM BR BCFG SKC
     FM241300 VRB02KT P6SM SKC
     FM241600 12005KT P6SM SCT050=

USA.gov is the U.S. government's official web portal to all federal, state and local government web resources and services.